sensor_id;sensor_type;location;lat;lon;timestamp;P1;durP1;ratioP1;P2;durP2;ratioP2
52798;SDS011;38667;42.872;74.622;2023-04-01T00:00:07;48.77;;;18.73;;
52798;SDS011;38667;42.872;74.622;2023-04-01T00:02:34;43.07;;;19.57;;
52798;SDS011;38667;42.872;74.622;2023-04-01T00:05:02;42.70;;;19.10;;
52798;SDS011;38667;42.872;74.622;2023-04-01T00:07:29;43.90;;;20.07;;
52798;SDS011;38667;42.872;74.622;2023-04-01T00:09:56;48.70;;;20.47;;
52798;SDS011;38667;42.872;74.622;2023-04-01T00:12:22;45.70;;;19.23;;
52798;SDS011;38667;42.872;74.622;2023-04-01T00:14:48;42.40;;;19.20;;
52798;SDS011;38667;42.872;74.622;2023-04-01T00:17:15;40.07;;;20.40;;
52798;SDS011;38667;42.872;74.622;2023-04-01T00:19:41;48.40;;;19.53;;
52798;SDS011;38667;42.872;74.622;2023-04-01T00:22:09;50.60;;;21.10;;
52798;SDS011;38667;42.872;74.622;2023-04-01T00:24:35;53.27;;;20.70;;
52798;SDS011;38667;42.872;74.622;2023-04-01T00:27:01;43.40;;;19.70;;
52798;SDS011;38667;42.872;74.622;2023-04-01T00:29:28;42.30;;;20.10;;
52798;SDS011;38667;42.872;74.622;2023-04-01T00:31:55;47.97;;;20.10;;
52798;SDS011;38667;42.872;74.622;2023-04-01T00:34:21;52.80;;;21.20;;
52798;SDS011;38667;42.872;74.622;2023-04-01T00:36:48;49.57;;;19.17;;
52798;SDS011;38667;42.872;74.622;2023-04-01T00:39:15;47.77;;;20.17;;
52798;SDS011;38667;42.872;74.622;2023-04-01T00:41:42;42.20;;;19.73;;
52798;SDS011;38667;42.872;74.622;2023-04-01T00:44:14;43.83;;;20.30;;
52798;SDS011;38667;42.872;74.622;2023-04-01T00:46:41;45.70;;;20.93;;
52798;SDS011;38667;42.872;74.622;2023-04-01T00:49:08;47.07;;;20.93;;
52798;SDS011;38667;42.872;74.622;2023-04-01T00:51:34;48.70;;;21.13;;
52798;SDS011;38667;42.872;74.622;2023-04-01T00:54:04;46.33;;;21.30;;
52798;SDS011;38667;42.872;74.622;2023-04-01T00:56:33;54.57;;;20.27;;
52798;SDS011;38667;42.872;74.622;2023-04-01T00:59:02;41.03;;;20.63;;
52798;SDS011;38667;42.872;74.622;2023-04-01T01:01:31;46.67;;;20.93;;
52798;SDS011;38667;42.872;74.622;2023-04-01T01:03:58;39.87;;;19.27;;
52798;SDS011;38667;42.872;74.622;2023-04-01T01:06:27;39.00;;;19.23;;
52798;SDS011;38667;42.872;74.622;2023-04-01T01:09:05;40.70;;;20.20;;
52798;SDS011;38667;42.872;74.622;2023-04-01T01:11:41;40.53;;;19.07;;
52798;SDS011;38667;42.872;74.622;2023-04-01T01:14:17;41.80;;;19.17;;
52798;SDS011;38667;42.872;74.622;2023-04-01T01:16:54;42.50;;;20.07;;
52798;SDS011;38667;42.872;74.622;2023-04-01T01:19:35;48.30;;;20.90;;
52798;SDS011;38667;42.872;74.622;2023-04-01T01:22:31;66.90;;;22.37;;
52798;SDS011;38667;42.872;74.622;2023-04-01T01:25:14;44.23;;;20.77;;
52798;SDS011;38667;42.872;74.622;2023-04-01T01:27:53;55.70;;;21.90;;
52798;SDS011;38667;42.872;74.622;2023-04-01T01:30:38;43.30;;;20.20;;
52798;SDS011;38667;42.872;74.622;2023-04-01T01:35:59;50.13;;;22.57;;
52798;SDS011;38667;42.872;74.622;2023-04-01T01:38:31;56.67;;;22.20;;
52798;SDS011;38667;42.872;74.622;2023-04-01T01:40:59;51.83;;;20.80;;
52798;SDS011;38667;42.872;74.622;2023-04-01T01:43:29;54.57;;;22.27;;
52798;SDS011;38667;42.872;74.622;2023-04-01T01:45:58;63.67;;;22.43;;
52798;SDS011;38667;42.872;74.622;2023-04-01T01:48:27;53.23;;;21.53;;
52798;SDS011;38667;42.872;74.622;2023-04-01T01:50:55;52.50;;;22.67;;
52798;SDS011;38667;42.872;74.622;2023-04-01T01:53:24;46.77;;;22.00;;
52798;SDS011;38667;42.872;74.622;2023-04-01T01:55:50;48.90;;;22.23;;
52798;SDS011;38667;42.872;74.622;2023-04-01T01:58:17;50.53;;;22.03;;
52798;SDS011;38667;42.872;74.622;2023-04-01T02:00:48;48.58;;;22.48;;
52798;SDS011;38667;42.872;74.622;2023-04-01T02:03:16;42.80;;;20.83;;
52798;SDS011;38667;42.872;74.622;2023-04-01T02:05:45;43.03;;;21.23;;
52798;SDS011;38667;42.872;74.622;2023-04-01T02:08:12;45.42;;;22.30;;
52798;SDS011;38667;42.872;74.622;2023-04-01T02:10:43;48.97;;;22.17;;
52798;SDS011;38667;42.872;74.622;2023-04-01T02:13:15;47.47;;;22.27;;
52798;SDS011;38667;42.872;74.622;2023-04-01T02:15:47;45.65;;;21.60;;
52798;SDS011;38667;42.872;74.622;2023-04-01T02:18:15;50.42;;;24.13;;
52798;SDS011;38667;42.872;74.622;2023-04-01T02:20:46;47.28;;;23.67;;
52798;SDS011;38667;42.872;74.622;2023-04-01T02:23:12;51.63;;;23.20;;
52798;SDS011;38667;42.872;74.622;2023-04-01T02:25:39;55.50;;;24.90;;
52798;SDS011;38667;42.872;74.622;2023-04-01T02:28:10;54.50;;;25.35;;
52798;SDS011;38667;42.872;74.622;2023-04-01T02:30:38;55.05;;;25.67;;
52798;SDS011;38667;42.872;74.622;2023-04-01T02:33:06;52.60;;;24.60;;
52798;SDS011;38667;42.872;74.622;2023-04-01T02:35:34;62.38;;;26.17;;
52798;SDS011;38667;42.872;74.622;2023-04-01T02:38:01;55.97;;;23.65;;
52798;SDS011;38667;42.872;74.622;2023-04-01T02:40:28;56.17;;;24.30;;
52798;SDS011;38667;42.872;74.622;2023-04-01T02:42:56;54.45;;;23.83;;
52798;SDS011;38667;42.872;74.622;2023-04-01T02:45:23;49.88;;;22.63;;
52798;SDS011;38667;42.872;74.622;2023-04-01T02:47:49;52.33;;;22.52;;
52798;SDS011;38667;42.872;74.622;2023-04-01T02:50:16;62.80;;;23.23;;
52798;SDS011;38667;42.872;74.622;2023-04-01T02:52:42;62.85;;;25.58;;
52798;SDS011;38667;42.872;74.622;2023-04-01T02:55:09;63.10;;;25.83;;
52798;SDS011;38667;42.872;74.622;2023-04-01T02:57:35;54.45;;;24.80;;
52798;SDS011;38667;42.872;74.622;2023-04-01T03:00:03;53.72;;;26.92;;
52798;SDS011;38667;42.872;74.622;2023-04-01T03:02:30;66.82;;;26.85;;
52798;SDS011;38667;42.872;74.622;2023-04-01T03:04:56;72.97;;;27.58;;
52798;SDS011;38667;42.872;74.622;2023-04-01T03:07:23;64.50;;;26.48;;
52798;SDS011;38667;42.872;74.622;2023-04-01T03:09:49;64.80;;;27.83;;
52798;SDS011;38667;42.872;74.622;2023-04-01T03:12:15;67.90;;;27.77;;
52798;SDS011;38667;42.872;74.622;2023-04-01T03:14:42;78.13;;;31.15;;
52798;SDS011;38667;42.872;74.622;2023-04-01T03:17:10;68.72;;;30.42;;
52798;SDS011;38667;42.872;74.622;2023-04-01T03:19:36;63.85;;;28.50;;
52798;SDS011;38667;42.872;74.622;2023-04-01T03:22:02;56.03;;;26.10;;
52798;SDS011;38667;42.872;74.622;2023-04-01T03:24:28;57.67;;;25.02;;
52798;SDS011;38667;42.872;74.622;2023-04-01T03:26:55;68.50;;;26.25;;
52798;SDS011;38667;42.872;74.622;2023-04-01T03:29:21;58.80;;;27.05;;
52798;SDS011;38667;42.872;74.622;2023-04-01T03:31:47;65.90;;;25.83;;
52798;SDS011;38667;42.872;74.622;2023-04-01T03:34:15;54.97;;;24.88;;
52798;SDS011;38667;42.872;74.622;2023-04-01T03:36:41;53.33;;;23.92;;
52798;SDS011;38667;42.872;74.622;2023-04-01T03:39:08;52.38;;;23.63;;
52798;SDS011;38667;42.872;74.622;2023-04-01T03:41:35;48.33;;;23.00;;
52798;SDS011;38667;42.872;74.622;2023-04-01T03:44:02;57.80;;;22.45;;
52798;SDS011;38667;42.872;74.622;2023-04-01T03:46:28;50.22;;;22.27;;
52798;SDS011;38667;42.872;74.622;2023-04-01T03:48:54;54.83;;;23.17;;
52798;SDS011;38667;42.872;74.622;2023-04-01T03:51:22;51.90;;;21.35;;
52798;SDS011;38667;42.872;74.622;2023-04-01T03:53:49;49.33;;;22.25;;
52798;SDS011;38667;42.872;74.622;2023-04-01T03:56:15;59.17;;;21.92;;
52798;SDS011;38667;42.872;74.622;2023-04-01T03:58:41;48.28;;;21.65;;
52798;SDS011;38667;42.872;74.622;2023-04-01T04:01:14;44.58;;;21.65;;
52798;SDS011;38667;42.872;74.622;2023-04-01T04:03:42;57.75;;;23.90;;
52798;SDS011;38667;42.872;74.622;2023-04-01T04:06:10;47.17;;;20.48;;
52798;SDS011;38667;42.872;74.622;2023-04-01T04:08:39;42.53;;;18.73;;
52798;SDS011;38667;42.872;74.622;2023-04-01T04:11:06;50.90;;;20.67;;
52798;SDS011;38667;42.872;74.622;2023-04-01T04:13:32;55.17;;;21.38;;
52798;SDS011;38667;42.872;74.622;2023-04-01T04:15:59;56.00;;;19.35;;
52798;SDS011;38667;42.872;74.622;2023-04-01T04:18:25;46.42;;;16.95;;
52798;SDS011;38667;42.872;74.622;2023-04-01T04:20:51;56.58;;;18.17;;
52798;SDS011;38667;42.872;74.622;2023-04-01T04:23:17;48.28;;;17.70;;
52798;SDS011;38667;42.872;74.622;2023-04-01T04:25:54;51.63;;;17.35;;
52798;SDS011;38667;42.872;74.622;2023-04-01T04:28:22;33.70;;;13.60;;
52798;SDS011;38667;42.872;74.622;2023-04-01T04:30:48;40.58;;;14.68;;
52798;SDS011;38667;42.872;74.622;2023-04-01T04:33:14;44.08;;;14.00;;
52798;SDS011;38667;42.872;74.622;2023-04-01T04:35:41;42.92;;;14.63;;
52798;SDS011;38667;42.872;74.622;2023-04-01T04:38:07;41.00;;;15.10;;
52798;SDS011;38667;42.872;74.622;2023-04-01T04:40:35;40.38;;;15.38;;
52798;SDS011;38667;42.872;74.622;2023-04-01T04:43:03;41.00;;;16.02;;
52798;SDS011;38667;42.872;74.622;2023-04-01T04:45:30;49.42;;;16.50;;
52798;SDS011;38667;42.872;74.622;2023-04-01T04:47:56;40.75;;;14.77;;
52798;SDS011;38667;42.872;74.622;2023-04-01T04:50:23;34.03;;;15.30;;
52798;SDS011;38667;42.872;74.622;2023-04-01T04:52:50;32.97;;;14.25;;
52798;SDS011;38667;42.872;74.622;2023-04-01T04:55:16;38.50;;;14.73;;
52798;SDS011;38667;42.872;74.622;2023-04-01T04:57:43;43.38;;;15.75;;
52798;SDS011;38667;42.872;74.622;2023-04-01T05:00:11;34.90;;;15.60;;
52798;SDS011;38667;42.872;74.622;2023-04-01T05:02:38;45.83;;;16.25;;
52798;SDS011;38667;42.872;74.622;2023-04-01T05:05:04;36.20;;;14.25;;
52798;SDS011;38667;42.872;74.622;2023-04-01T05:07:31;40.70;;;15.85;;
52798;SDS011;38667;42.872;74.622;2023-04-01T05:09:59;40.28;;;14.80;;
52798;SDS011;38667;42.872;74.622;2023-04-01T05:12:25;44.03;;;14.52;;
52798;SDS011;38667;42.872;74.622;2023-04-01T05:14:51;39.83;;;14.05;;
52798;SDS011;38667;42.872;74.622;2023-04-01T05:17:19;44.40;;;15.73;;
52798;SDS011;38667;42.872;74.622;2023-04-01T05:19:46;33.63;;;14.55;;
52798;SDS011;38667;42.872;74.622;2023-04-01T05:22:12;34.45;;;14.15;;
52798;SDS011;38667;42.872;74.622;2023-04-01T05:24:38;41.00;;;13.93;;
52798;SDS011;38667;42.872;74.622;2023-04-01T05:27:05;35.38;;;13.30;;
52798;SDS011;38667;42.872;74.622;2023-04-01T05:29:31;34.03;;;12.25;;
52798;SDS011;38667;42.872;74.622;2023-04-01T05:31:58;38.58;;;12.85;;
52798;SDS011;38667;42.872;74.622;2023-04-01T05:34:26;41.05;;;13.02;;
52798;SDS011;38667;42.872;74.622;2023-04-01T05:36:52;35.05;;;12.77;;
52798;SDS011;38667;42.872;74.622;2023-04-01T05:39:18;37.63;;;12.27;;
52798;SDS011;38667;42.872;74.622;2023-04-01T05:41:45;28.38;;;11.50;;
52798;SDS011;38667;42.872;74.622;2023-04-01T05:44:11;27.65;;;11.10;;
52798;SDS011;38667;42.872;74.622;2023-04-01T05:46:38;35.30;;;10.65;;
52798;SDS011;38667;42.872;74.622;2023-04-01T05:49:04;30.17;;;9.30;;
52798;SDS011;38667;42.872;74.622;2023-04-01T05:51:32;23.55;;;8.23;;
52798;SDS011;38667;42.872;74.622;2023-04-01T05:53:58;29.17;;;9.02;;
52798;SDS011;38667;42.872;74.622;2023-04-01T05:56:25;35.10;;;9.93;;
52798;SDS011;38667;42.872;74.622;2023-04-01T05:58:52;29.60;;;9.40;;
52798;SDS011;38667;42.872;74.622;2023-04-01T06:01:19;30.70;;;10.15;;
52798;SDS011;38667;42.872;74.622;2023-04-01T06:03:45;37.10;;;9.88;;
52798;SDS011;38667;42.872;74.622;2023-04-01T06:06:13;34.35;;;10.00;;
52798;SDS011;38667;42.872;74.622;2023-04-01T06:08:42;36.83;;;9.40;;
52798;SDS011;38667;42.872;74.622;2023-04-01T06:11:13;26.38;;;7.22;;
52798;SDS011;38667;42.872;74.622;2023-04-01T06:13:54;39.08;;;7.85;;
52798;SDS011;38667;42.872;74.622;2023-04-01T06:16:38;29.58;;;7.82;;
52798;SDS011;38667;42.872;74.622;2023-04-01T06:19:22;34.10;;;7.25;;
52798;SDS011;38667;42.872;74.622;2023-04-01T06:22:02;34.58;;;7.80;;
52798;SDS011;38667;42.872;74.622;2023-04-01T06:24:54;26.27;;;7.03;;
52798;SDS011;38667;42.872;74.622;2023-04-01T06:27:40;35.40;;;7.32;;
52798;SDS011;38667;42.872;74.622;2023-04-01T06:30:30;16.90;;;3.15;;
52798;SDS011;38667;42.872;74.622;2023-04-01T06:33:13;15.52;;;2.83;;
52798;SDS011;38667;42.872;74.622;2023-04-01T06:35:52;11.02;;;2.40;;
52798;SDS011;38667;42.872;74.622;2023-04-01T06:38:37;11.23;;;2.33;;
52798;SDS011;38667;42.872;74.622;2023-04-01T06:44:16;21.55;;;2.33;;
52798;SDS011;38667;42.872;74.622;2023-04-01T06:46:50;13.90;;;1.98;;
52798;SDS011;38667;42.872;74.622;2023-04-01T06:49:30;14.73;;;2.20;;
52798;SDS011;38667;42.872;74.622;2023-04-01T06:52:07;11.73;;;2.30;;
52798;SDS011;38667;42.872;74.622;2023-04-01T06:54:43;15.55;;;2.55;;
52798;SDS011;38667;42.872;74.622;2023-04-01T06:57:17;12.00;;;2.35;;
52798;SDS011;38667;42.872;74.622;2023-04-01T06:59:49;8.00;;;2.25;;
52798;SDS011;38667;42.872;74.622;2023-04-01T07:02:20;7.72;;;1.70;;
52798;SDS011;38667;42.872;74.622;2023-04-01T07:04:54;14.38;;;3.22;;
52798;SDS011;38667;42.872;74.622;2023-04-01T07:07:25;18.20;;;3.90;;
52798;SDS011;38667;42.872;74.622;2023-04-01T07:09:56;21.75;;;2.60;;
52798;SDS011;38667;42.872;74.622;2023-04-01T07:12:28;13.73;;;2.17;;
52798;SDS011;38667;42.872;74.622;2023-04-01T07:15:04;18.50;;;2.95;;
52798;SDS011;38667;42.872;74.622;2023-04-01T07:17:39;13.32;;;2.30;;
52798;SDS011;38667;42.872;74.622;2023-04-01T07:20:11;20.50;;;2.05;;
52798;SDS011;38667;42.872;74.622;2023-04-01T07:22:43;17.80;;;2.55;;
52798;SDS011;38667;42.872;74.622;2023-04-01T07:25:12;22.27;;;2.28;;
52798;SDS011;38667;42.872;74.622;2023-04-01T07:27:41;17.13;;;2.33;;
52798;SDS011;38667;42.872;74.622;2023-04-01T07:30:13;16.00;;;2.30;;
52798;SDS011;38667;42.872;74.622;2023-04-01T07:32:41;17.38;;;2.45;;
52798;SDS011;38667;42.872;74.622;2023-04-01T07:35:15;12.00;;;2.53;;
52798;SDS011;38667;42.872;74.622;2023-04-01T07:37:51;15.32;;;3.08;;
52798;SDS011;38667;42.872;74.622;2023-04-01T07:40:36;17.65;;;1.95;;
52798;SDS011;38667;42.872;74.622;2023-04-01T07:43:16;20.55;;;3.00;;
52798;SDS011;38667;42.872;74.622;2023-04-01T07:46:03;13.48;;;2.88;;
52798;SDS011;38667;42.872;74.622;2023-04-01T07:48:38;15.65;;;3.22;;
52798;SDS011;38667;42.872;74.622;2023-04-01T07:51:14;20.58;;;3.22;;
52798;SDS011;38667;42.872;74.622;2023-04-01T07:53:46;22.75;;;2.67;;
52798;SDS011;38667;42.872;74.622;2023-04-01T07:56:18;21.83;;;2.42;;
52798;SDS011;38667;42.872;74.622;2023-04-01T07:58:53;17.75;;;2.70;;
52798;SDS011;38667;42.872;74.622;2023-04-01T08:01:28;14.38;;;2.50;;
52798;SDS011;38667;42.872;74.622;2023-04-01T08:04:04;18.08;;;2.97;;
52798;SDS011;38667;42.872;74.622;2023-04-01T08:06:50;17.77;;;3.60;;
52798;SDS011;38667;42.872;74.622;2023-04-01T08:09:25;25.92;;;3.60;;
52798;SDS011;38667;42.872;74.622;2023-04-01T08:12:00;21.85;;;3.65;;
52798;SDS011;38667;42.872;74.622;2023-04-01T08:14:38;26.23;;;3.20;;
52798;SDS011;38667;42.872;74.622;2023-04-01T08:17:14;16.40;;;4.43;;
52798;SDS011;38667;42.872;74.622;2023-04-01T08:19:51;26.35;;;5.68;;
52798;SDS011;38667;42.872;74.622;2023-04-01T08:22:26;25.25;;;6.70;;
52798;SDS011;38667;42.872;74.622;2023-04-01T08:24:54;17.67;;;5.28;;
52798;SDS011;38667;42.872;74.622;2023-04-01T08:27:25;25.40;;;5.18;;
52798;SDS011;38667;42.872;74.622;2023-04-01T08:29:59;30.90;;;6.60;;
52798;SDS011;38667;42.872;74.622;2023-04-01T08:32:30;30.20;;;7.43;;
52798;SDS011;38667;42.872;74.622;2023-04-01T08:35:02;30.42;;;8.98;;
52798;SDS011;38667;42.872;74.622;2023-04-01T08:37:35;21.23;;;7.43;;
52798;SDS011;38667;42.872;74.622;2023-04-01T08:40:10;26.55;;;8.05;;
52798;SDS011;38667;42.872;74.622;2023-04-01T08:42:57;19.02;;;5.07;;
52798;SDS011;38667;42.872;74.622;2023-04-01T08:45:42;36.67;;;8.82;;
52798;SDS011;38667;42.872;74.622;2023-04-01T08:48:22;30.65;;;8.38;;
52798;SDS011;38667;42.872;74.622;2023-04-01T08:54:38;26.27;;;8.77;;
52798;SDS011;38667;42.872;74.622;2023-04-01T08:57:29;27.58;;;6.35;;
52798;SDS011;38667;42.872;74.622;2023-04-01T09:00:10;21.20;;;5.45;;
52798;SDS011;38667;42.872;74.622;2023-04-01T09:02:54;25.70;;;5.70;;
52798;SDS011;38667;42.872;74.622;2023-04-01T09:08:39;20.50;;;5.13;;
52798;SDS011;38667;42.872;74.622;2023-04-01T09:11:23;11.75;;;3.35;;
52798;SDS011;38667;42.872;74.622;2023-04-01T09:17:28;12.68;;;2.65;;
52798;SDS011;38667;42.872;74.622;2023-04-01T09:20:28;43.67;;;14.73;;
52798;SDS011;38667;42.872;74.622;2023-04-01T09:23:15;44.20;;;18.30;;
52798;SDS011;38667;42.872;74.622;2023-04-01T09:25:58;57.25;;;30.70;;
52798;SDS011;38667;42.872;74.622;2023-04-01T09:28:46;70.93;;;38.88;;
52798;SDS011;38667;42.872;74.622;2023-04-01T09:31:22;66.18;;;34.25;;
52798;SDS011;38667;42.872;74.622;2023-04-01T09:34:19;60.60;;;29.58;;
52798;SDS011;38667;42.872;74.622;2023-04-01T09:37:19;65.05;;;31.23;;
52798;SDS011;38667;42.872;74.622;2023-04-01T09:39:50;60.03;;;24.20;;
52798;SDS011;38667;42.872;74.622;2023-04-01T09:42:43;45.70;;;17.85;;
52798;SDS011;38667;42.872;74.622;2023-04-01T09:45:29;30.83;;;12.48;;
52798;SDS011;38667;42.872;74.622;2023-04-01T09:48:08;32.70;;;12.70;;
52798;SDS011;38667;42.872;74.622;2023-04-01T09:50:47;36.28;;;17.05;;
52798;SDS011;38667;42.872;74.622;2023-04-01T09:53:24;51.35;;;16.98;;
52798;SDS011;38667;42.872;74.622;2023-04-01T09:56:08;48.70;;;19.20;;
52798;SDS011;38667;42.872;74.622;2023-04-01T09:59:03;41.80;;;18.83;;
52798;SDS011;38667;42.872;74.622;2023-04-01T10:01:54;19.65;;;5.72;;
52798;SDS011;38667;42.872;74.622;2023-04-01T10:08:03;23.52;;;7.20;;
52798;SDS011;38667;42.872;74.622;2023-04-01T10:10:57;41.85;;;16.70;;
52798;SDS011;38667;42.872;74.622;2023-04-01T10:13:44;34.67;;;13.95;;
52798;SDS011;38667;42.872;74.622;2023-04-01T10:16:41;30.48;;;9.00;;
52798;SDS011;38667;42.872;74.622;2023-04-01T10:19:34;38.70;;;18.30;;
52798;SDS011;38667;42.872;74.622;2023-04-01T10:22:30;63.70;;;22.88;;
52798;SDS011;38667;42.872;74.622;2023-04-01T10:25:18;35.60;;;15.95;;
52798;SDS011;38667;42.872;74.622;2023-04-01T10:28:20;26.52;;;7.35;;
52798;SDS011;38667;42.872;74.622;2023-04-01T10:34:05;122.68;;;61.30;;
52798;SDS011;38667;42.872;74.622;2023-04-01T10:36:59;113.30;;;53.85;;
52798;SDS011;38667;42.872;74.622;2023-04-01T10:39:34;56.67;;;26.13;;
52798;SDS011;38667;42.872;74.622;2023-04-01T10:48:16;80.82;;;38.35;;
52798;SDS011;38667;42.872;74.622;2023-04-01T10:51:04;77.43;;;28.67;;
52798;SDS011;38667;42.872;74.622;2023-04-01T10:53:46;54.33;;;23.33;;
52798;SDS011;38667;42.872;74.622;2023-04-01T10:56:36;59.65;;;24.13;;
52798;SDS011;38667;42.872;74.622;2023-04-01T11:15:48;109.38;;;47.90;;
52798;SDS011;38667;42.872;74.622;2023-04-01T11:27:44;78.55;;;29.83;;
52798;SDS011;38667;42.872;74.622;2023-04-01T11:30:41;57.47;;;19.95;;
52798;SDS011;38667;42.872;74.622;2023-04-01T11:33:19;59.72;;;16.98;;
52798;SDS011;38667;42.872;74.622;2023-04-01T11:35:54;36.90;;;13.93;;
52798;SDS011;38667;42.872;74.622;2023-04-01T11:41:36;34.97;;;9.45;;
52798;SDS011;38667;42.872;74.622;2023-04-01T11:44:12;34.97;;;10.85;;
52798;SDS011;38667;42.872;74.622;2023-04-01T11:46:46;37.25;;;8.77;;
52798;SDS011;38667;42.872;74.622;2023-04-01T11:52:16;49.47;;;14.57;;
52798;SDS011;38667;42.872;74.622;2023-04-01T11:57:46;55.25;;;11.77;;
52798;SDS011;38667;42.872;74.622;2023-04-01T12:00:39;48.25;;;15.02;;
52798;SDS011;38667;42.872;74.622;2023-04-01T12:03:33;45.53;;;11.73;;
52798;SDS011;38667;42.872;74.622;2023-04-01T12:06:14;37.60;;;11.18;;
52798;SDS011;38667;42.872;74.622;2023-04-01T12:08:50;71.88;;;18.85;;
52798;SDS011;38667;42.872;74.622;2023-04-01T12:11:22;79.88;;;24.42;;
52798;SDS011;38667;42.872;74.622;2023-04-01T12:13:55;79.72;;;29.83;;
52798;SDS011;38667;42.872;74.622;2023-04-01T12:16:42;78.97;;;31.33;;
52798;SDS011;38667;42.872;74.622;2023-04-01T12:19:20;109.05;;;39.80;;
52798;SDS011;38667;42.872;74.622;2023-04-01T12:21:58;87.90;;;32.60;;
52798;SDS011;38667;42.872;74.622;2023-04-01T12:24:45;120.68;;;42.58;;
52798;SDS011;38667;42.872;74.622;2023-04-01T12:30:12;127.97;;;50.50;;
52798;SDS011;38667;42.872;74.622;2023-04-01T12:33:01;95.72;;;35.55;;
52798;SDS011;38667;42.872;74.622;2023-04-01T12:35:46;72.20;;;26.23;;
52798;SDS011;38667;42.872;74.622;2023-04-01T12:38:23;78.78;;;23.52;;
52798;SDS011;38667;42.872;74.622;2023-04-01T12:41:07;61.75;;;18.70;;
52798;SDS011;38667;42.872;74.622;2023-04-01T12:43:46;51.85;;;14.55;;
52798;SDS011;38667;42.872;74.622;2023-04-01T12:46:54;55.17;;;17.83;;
52798;SDS011;38667;42.872;74.622;2023-04-01T12:50:10;90.43;;;31.95;;
52798;SDS011;38667;42.872;74.622;2023-04-01T12:52:54;83.10;;;30.67;;
52798;SDS011;38667;42.872;74.622;2023-04-01T12:55:32;96.78;;;34.40;;
52798;SDS011;38667;42.872;74.622;2023-04-01T13:01:23;62.53;;;19.50;;
52798;SDS011;38667;42.872;74.622;2023-04-01T13:10:04;45.17;;;7.40;;
52798;SDS011;38667;42.872;74.622;2023-04-01T13:15:41;34.83;;;7.35;;
52798;SDS011;38667;42.872;74.622;2023-04-01T13:18:17;34.47;;;6.53;;
52798;SDS011;38667;42.872;74.622;2023-04-01T13:20:55;42.70;;;6.75;;
52798;SDS011;38667;42.872;74.622;2023-04-01T13:23:34;46.25;;;7.57;;
52798;SDS011;38667;42.872;74.622;2023-04-01T13:26:12;42.63;;;8.15;;
52798;SDS011;38667;42.872;74.622;2023-04-01T13:28:46;34.65;;;7.50;;
52798;SDS011;38667;42.872;74.622;2023-04-01T13:31:22;44.90;;;8.20;;
52798;SDS011;38667;42.872;74.622;2023-04-01T13:34:06;40.83;;;9.23;;
52798;SDS011;38667;42.872;74.622;2023-04-01T13:36:43;69.05;;;10.48;;
52798;SDS011;38667;42.872;74.622;2023-04-01T13:39:27;56.55;;;9.07;;
52798;SDS011;38667;42.872;74.622;2023-04-01T13:42:11;46.08;;;11.40;;
52798;SDS011;38667;42.872;74.622;2023-04-01T13:44:45;65.75;;;10.95;;
52798;SDS011;38667;42.872;74.622;2023-04-01T13:50:19;49.60;;;10.23;;
52798;SDS011;38667;42.872;74.622;2023-04-01T13:53:19;61.38;;;10.57;;
52798;SDS011;38667;42.872;74.622;2023-04-01T13:56:08;77.72;;;11.73;;
52798;SDS011;38667;42.872;74.622;2023-04-01T14:01:31;68.53;;;10.25;;
52798;SDS011;38667;42.872;74.622;2023-04-01T14:04:09;62.05;;;8.90;;
52798;SDS011;38667;42.872;74.622;2023-04-01T14:06:50;64.93;;;9.48;;
52798;SDS011;38667;42.872;74.622;2023-04-01T14:09:36;59.25;;;9.30;;
52798;SDS011;38667;42.872;74.622;2023-04-01T14:12:25;56.67;;;11.00;;
52798;SDS011;38667;42.872;74.622;2023-04-01T14:14:59;82.75;;;12.38;;
52798;SDS011;38667;42.872;74.622;2023-04-01T14:17:48;75.45;;;11.38;;
52798;SDS011;38667;42.872;74.622;2023-04-01T14:20:34;82.80;;;13.60;;
52798;SDS011;38667;42.872;74.622;2023-04-01T14:23:12;49.55;;;12.07;;
52798;SDS011;38667;42.872;74.622;2023-04-01T14:26:00;72.70;;;13.50;;
52798;SDS011;38667;42.872;74.622;2023-04-01T14:29:02;86.90;;;16.10;;
52798;SDS011;38667;42.872;74.622;2023-04-01T14:31:44;85.63;;;15.27;;
52798;SDS011;38667;42.872;74.622;2023-04-01T14:34:23;90.07;;;16.63;;
52798;SDS011;38667;42.872;74.622;2023-04-01T14:37:07;99.38;;;18.88;;
52798;SDS011;38667;42.872;74.622;2023-04-01T14:42:59;87.10;;;18.10;;
52798;SDS011;38667;42.872;74.622;2023-04-01T14:45:44;88.78;;;19.75;;
52798;SDS011;38667;42.872;74.622;2023-04-01T14:48:25;102.60;;;19.02;;
52798;SDS011;38667;42.872;74.622;2023-04-01T14:50:57;93.90;;;17.95;;
52798;SDS011;38667;42.872;74.622;2023-04-01T14:53:33;82.68;;;17.40;;
52798;SDS011;38667;42.872;74.622;2023-04-01T14:56:02;90.90;;;19.13;;
52798;SDS011;38667;42.872;74.622;2023-04-01T14:58:39;77.47;;;17.73;;
52798;SDS011;38667;42.872;74.622;2023-04-01T15:01:12;80.40;;;16.95;;
52798;SDS011;38667;42.872;74.622;2023-04-01T15:03:47;97.57;;;15.77;;
52798;SDS011;38667;42.872;74.622;2023-04-01T15:09:28;85.20;;;17.23;;
52798;SDS011;38667;42.872;74.622;2023-04-01T15:12:38;91.35;;;15.80;;
52798;SDS011;38667;42.872;74.622;2023-04-01T15:15:14;89.93;;;15.68;;
52798;SDS011;38667;42.872;74.622;2023-04-01T15:17:57;76.72;;;15.63;;
52798;SDS011;38667;42.872;74.622;2023-04-01T15:20:45;77.32;;;13.55;;
52798;SDS011;38667;42.872;74.622;2023-04-01T15:23:40;69.82;;;14.40;;
52798;SDS011;38667;42.872;74.622;2023-04-01T15:26:27;72.80;;;13.57;;
52798;SDS011;38667;42.872;74.622;2023-04-01T15:29:09;82.95;;;14.13;;
52798;SDS011;38667;42.872;74.622;2023-04-01T15:32:04;80.45;;;14.30;;
52798;SDS011;38667;42.872;74.622;2023-04-01T15:34:42;77.60;;;13.02;;
52798;SDS011;38667;42.872;74.622;2023-04-01T15:37:16;64.97;;;12.25;;
52798;SDS011;38667;42.872;74.622;2023-04-01T15:39:54;72.72;;;12.07;;
52798;SDS011;38667;42.872;74.622;2023-04-01T15:45:34;78.20;;;13.20;;
52798;SDS011;38667;42.872;74.622;2023-04-01T15:48:13;82.10;;;13.60;;
52798;SDS011;38667;42.872;74.622;2023-04-01T15:51:01;68.78;;;13.77;;
52798;SDS011;38667;42.872;74.622;2023-04-01T15:53:44;75.25;;;13.57;;
52798;SDS011;38667;42.872;74.622;2023-04-01T15:56:46;84.72;;;13.75;;
52798;SDS011;38667;42.872;74.622;2023-04-01T15:59:23;84.22;;;14.95;;
52798;SDS011;38667;42.872;74.622;2023-04-01T16:02:18;79.78;;;14.88;;
52798;SDS011;38667;42.872;74.622;2023-04-01T16:04:54;67.13;;;16.00;;
52798;SDS011;38667;42.872;74.622;2023-04-01T16:07:30;76.68;;;16.38;;
52798;SDS011;38667;42.872;74.622;2023-04-01T16:10:19;97.40;;;17.67;;
52798;SDS011;38667;42.872;74.622;2023-04-01T16:12:59;104.05;;;18.25;;
52798;SDS011;38667;42.872;74.622;2023-04-01T16:15:37;97.40;;;19.35;;
52798;SDS011;38667;42.872;74.622;2023-04-01T16:18:28;93.53;;;18.88;;
52798;SDS011;38667;42.872;74.622;2023-04-01T16:21:05;83.90;;;16.80;;
52798;SDS011;38667;42.872;74.622;2023-04-01T16:23:36;84.07;;;19.65;;
52798;SDS011;38667;42.872;74.622;2023-04-01T16:26:07;104.85;;;19.50;;
52798;SDS011;38667;42.872;74.622;2023-04-01T16:28:48;105.38;;;22.02;;
52798;SDS011;38667;42.872;74.622;2023-04-01T16:31:26;96.38;;;21.58;;